Time;durP1;ratioP1;P1;durP2;ratioP2;P2;SDS_P1;SDS_P2;PMS_P1;PMS_P2;Temp;Humidity;BMP_temperature;BMP_pressure;BME280_temperature;BME280_humidity;BME280_pressure;Samples;Min_cycle;Max_cycle;Signal;HPM_P1;HPM_P2
2023/05/25 00:01:48;;;;;;;2.97;2.60;;;;;;;10.54;86.25;99119.59;4093982;28;20220;-45
2023/05/25 00:03:51;;;;;;;6.65;4.38;;;;;;;10.41;86.48;99119.81;4099620;28;20610;-45
2023/05/25 00:05:53;;;;;;;5.32;3.17;;;;;;;10.39;86.79;99119.19;4111773;28;20225;-44
2023/05/25 00:07:55;;;;;;;7.63;3.25;;;;;;;10.33;86.86;99112.75;4096407;28;20211;-44
2023/05/25 00:09:57;;;;;;;5.20;3.22;;;;;;;10.33;87.18;99112.75;4100338;28;20215;-46
2023/05/25 00:11:58;;;;;;;4.95;3.08;;;;;;;10.26;87.25;99116.63;4079853;29;20237;-45
2023/05/25 00:14:00;;;;;;;6.43;2.78;;;;;;;10.25;87.24;99114.97;4098890;28;20274;-44
2023/05/25 00:16:02;;;;;;;4.35;3.45;;;;;;;10.17;87.62;99115.31;4095525;28;20216;-46
2023/05/25 00:18:04;;;;;;;6.45;3.50;;;;;;;10.11;87.75;99119.81;4094498;28;20220;-45
2023/05/25 00:20:07;;;;;;;6.82;3.08;;;;;;;10.18;87.81;99125.19;4095150;28;20219;-44
2023/05/25 00:22:10;;;;;;;4.85;2.50;;;;;;;10.12;87.88;99115.19;4078325;29;20236;-46
2023/05/25 00:24:12;;;;;;;3.72;3.05;;;;;;;10.03;88.20;99108.34;4092474;28;20207;-44
2023/05/25 00:26:14;;;;;;;7.13;3.72;;;;;;;10.06;88.25;99116.94;4095434;28;20699;-44
2023/05/25 00:28:15;;;;;;;6.60;3.45;;;;;;;9.94;88.36;99107.00;4079794;29;20204;-46
2023/05/25 00:30:17;;;;;;;4.00;2.72;;;;;;;9.88;88.33;99110.66;4113169;28;20210;-44
2023/05/25 00:32:19;;;;;;;6.70;3.17;;;;;;;9.92;88.77;99104.50;4097495;28;20224;-44
2023/05/25 00:34:21;;;;;;;4.72;3.10;;;;;;;9.95;89.02;99104.03;4089949;28;20228;-46
2023/05/25 00:36:23;;;;;;;4.93;3.55;;;;;;;9.90;88.92;99111.25;4096164;28;20310;-44
2023/05/25 00:38:25;;;;;;;6.70;3.75;;;;;;;9.94;89.16;99123.41;4099393;28;20247;-45
2023/05/25 00:40:27;;;;;;;7.53;2.97;;;;;;;9.87;89.35;99123.47;4099069;28;20253;-45
2023/05/25 00:42:29;;;;;;;4.78;2.97;;;;;;;9.83;89.08;99115.97;4099223;28;20235;-45
2023/05/25 00:44:31;;;;;;;6.50;3.75;;;;;;;9.81;89.28;99107.19;4096583;28;20738;-45
2023/05/25 00:46:50;;;;;;;7.68;3.40;;;;;;;9.84;89.28;99107.56;4101080;28;20211;-44
2023/05/25 00:48:53;;;;;;;4.25;3.40;;;;;;;9.85;89.45;99113.84;4090425;28;20218;-44
2023/05/25 00:50:56;;;;;;;5.50;3.72;;;;;;;9.84;89.23;99106.72;4092637;28;20207;-46
2023/05/25 00:52:58;;;;;;;4.57;3.97;;;;;;;9.83;89.08;99105.03;4087343;29;20231;-44
2023/05/25 00:55:01;;;;;;;6.45;3.97;;;;;;;9.80;89.36;99110.97;4098494;28;20345;-45
2023/05/25 00:57:06;;;;;;;7.07;3.58;;;;;;;9.88;89.53;99108.75;4105057;28;20226;-47
2023/05/25 00:59:11;;;;;;;4.65;3.63;;;;;;;9.89;89.71;99112.31;4091640;28;20235;-44
2023/05/25 01:01:15;;;;;;;14.05;4.53;;;;;;;9.85;89.88;99116.56;4096219;28;20302;-45
2023/05/25 01:03:20;;;;;;;9.07;4.63;;;;;;;9.90;89.93;99111.25;4097974;28;20262;-44
2023/05/25 01:05:27;;;;;;;5.07;2.85;;;;;;;9.72;90.57;99105.81;4096309;28;20258;-45
2023/05/25 01:07:30;;;;;;;6.68;3.40;;;;;;;9.82;90.38;99106.13;4083171;29;20212;-45
2023/05/25 01:09:33;;;;;;;6.00;4.32;;;;;;;9.76;90.17;99110.59;4093872;28;20227;-45
2023/05/25 01:11:35;;;;;;;6.78;3.10;;;;;;;9.75;90.27;99111.66;4101914;28;20219;-44
2023/05/25 01:13:38;;;;;;;6.57;3.60;;;;;;;9.79;90.37;99112.03;4099490;28;21144;-45
2023/05/25 01:15:40;;;;;;;6.78;3.42;;;;;;;9.72;90.69;99114.00;4100424;28;20307;-44
2023/05/25 01:17:42;;;;;;;5.45;2.95;;;;;;;9.69;90.73;99114.50;4084094;29;20215;-47
2023/05/25 01:19:44;;;;;;;4.40;3.13;;;;;;;9.59;90.51;99119.66;4099192;28;20263;-44
2023/05/25 01:22:03;;;;;;;5.60;2.92;;;;;;;9.53;91.34;99117.81;4087092;28;20299;-45
2023/05/25 01:24:11;;;;;;;6.05;3.58;;;;;;;9.56;91.01;99111.91;4086894;28;20215;-46
2023/05/25 01:26:15;;;;;;;7.28;4.40;;;;;;;9.56;91.13;99114.66;4105366;28;20302;-46
2023/05/25 01:28:21;;;;;;;8.65;3.10;;;;;;;9.47;91.30;99118.72;4112160;28;20218;-45
2023/05/25 01:30:25;;;;;;;4.93;3.58;;;;;;;9.46;91.67;99120.66;4097302;28;20207;-45
2023/05/25 01:32:27;;;;;;;4.43;3.10;;;;;;;9.31;91.10;99116.63;4093053;28;20230;-46
2023/05/25 01:34:30;;;;;;;7.18;3.10;;;;;;;9.25;91.65;99109.34;4097452;28;20227;-44
2023/05/25 01:36:32;;;;;;;5.80;3.85;;;;;;;9.20;91.46;99114.63;4098371;28;20681;-45
2023/05/25 01:38:35;;;;;;;4.18;2.60;;;;;;;9.18;91.43;99116.78;4095222;28;20242;-44
2023/05/25 01:40:37;;;;;;;4.43;3.08;;;;;;;9.24;91.43;99122.19;4079992;29;20215;-44
2023/05/25 01:42:39;;;;;;;5.63;3.90;;;;;;;9.19;91.58;99121.16;4101376;28;20330;-44
2023/05/25 01:44:41;;;;;;;9.27;3.30;;;;;;;9.22;91.63;99115.28;4097098;28;20685;-44
2023/05/25 01:46:43;;;;;;;6.40;3.42;;;;;;;8.89;92.24;99122.97;4099212;28;20721;-45
2023/05/25 01:48:56;;;;;;;6.95;3.78;;;;;;;8.45;94.64;99118.50;4084571;29;20343;-44
2023/05/25 01:51:02;;;;;;;7.57;3.28;;;;;;;8.39;95.06;99121.28;4080859;29;20339;-45
2023/05/25 01:53:23;;;;;;;6.32;3.55;;;;;;;8.52;94.73;99132.09;4093228;28;20235;-45
2023/05/25 01:55:26;;;;;;;7.45;3.75;;;;;;;8.60;95.13;99135.38;4095491;28;20611;-44
2023/05/25 01:57:28;;;;;;;5.07;3.30;;;;;;;8.66;94.76;99129.03;4082869;28;20307;-46
2023/05/25 01:59:30;;;;;;;7.70;3.28;;;;;;;8.61;94.63;99133.50;4095097;28;20207;-45
2023/05/25 02:01:33;;;;;;;5.70;2.75;;;;;;;8.65;94.07;99131.97;4095245;28;20289;-44
2023/05/25 02:03:47;;;;;;;5.38;3.83;;;;;;;8.64;93.90;99139.34;4090158;28;20212;-45
2023/05/25 02:05:49;;;;;;;8.77;3.15;;;;;;;8.71;93.60;99142.00;4095444;28;20220;-45
2023/05/25 02:07:51;;;;;;;5.22;3.85;;;;;;;8.78;93.54;99134.59;4074472;28;20702;-44
2023/05/25 02:09:53;;;;;;;7.63;3.78;;;;;;;8.78;93.13;99132.72;4084004;29;20216;-44
2023/05/25 02:11:55;;;;;;;7.93;3.40;;;;;;;8.72;93.38;99138.22;4082783;29;20243;-45
2023/05/25 02:13:57;;;;;;;5.43;3.38;;;;;;;8.70;93.46;99140.34;4104210;28;21214;-45
2023/05/25 02:15:58;;;;;;;5.57;2.92;;;;;;;8.73;93.80;99139.88;4100342;28;20700;-45
2023/05/25 02:18:01;;;;;;;4.40;2.58;;;;;;;8.66;93.17;99130.91;4099457;28;20712;-44
2023/05/25 02:20:05;;;;;;;8.68;3.40;;;;;;;8.65;93.54;99129.25;4096576;28;20665;-45
2023/05/25 02:22:07;;;;;;;5.95;2.95;;;;;;;8.69;93.31;99127.75;4101692;28;20249;-46
2023/05/25 02:24:09;;;;;;;6.05;3.03;;;;;;;8.70;92.89;99115.78;4096651;28;20218;-45
2023/05/25 02:26:11;;;;;;;5.68;3.72;;;;;;;8.71;93.28;99121.03;4101640;28;20206;-45
2023/05/25 02:28:13;;;;;;;5.57;3.50;;;;;;;8.61;92.77;99108.94;4103111;28;20229;-44
2023/05/25 02:30:15;;;;;;;4.32;3.28;;;;;;;8.64;93.20;99111.22;4098057;28;20203;-46
2023/05/25 02:32:17;;;;;;;3.53;2.40;;;;;;;8.57;93.34;99111.28;4085526;28;20709;-44
2023/05/25 02:34:19;;;;;;;5.45;3.42;;;;;;;8.58;93.66;99121.13;4084686;28;20689;-45
2023/05/25 02:36:21;;;;;;;6.47;3.88;;;;;;;8.55;93.59;99109.84;4085162;29;20215;-45
2023/05/25 02:38:23;;;;;;;3.60;2.83;;;;;;;8.57;93.94;99118.63;4096292;28;20228;-45
2023/05/25 02:40:24;;;;;;;3.92;3.03;;;;;;;8.58;93.88;99114.84;4097663;28;20899;-45
2023/05/25 02:42:26;;;;;;;5.22;3.50;;;;;;;8.54;94.07;99113.63;4112955;28;20792;-45
2023/05/25 02:44:28;;;;;;;6.35;3.25;;;;;;;8.46;94.19;99116.59;4085400;29;20310;-45
2023/05/25 02:46:32;;;;;;;6.85;2.40;;;;;;;8.44;94.01;99118.72;4082157;29;20809;-44
2023/05/25 02:48:34;;;;;;;4.53;3.00;;;;;;;8.39;93.88;99115.81;4098123;28;20277;-45
2023/05/25 02:50:36;;;;;;;4.03;2.72;;;;;;;8.36;93.21;99121.72;4100621;28;20796;-44
2023/05/25 02:52:38;;;;;;;6.95;3.03;;;;;;;8.33;93.92;99116.72;4098858;28;20245;-44
2023/05/25 02:54:40;;;;;;;4.88;3.38;;;;;;;8.29;93.85;99132.66;4095563;28;20635;-45
2023/05/25 02:56:42;;;;;;;4.75;3.15;;;;;;;8.30;93.63;99130.78;4085195;29;20666;-45
2023/05/25 02:58:44;;;;;;;6.13;3.20;;;;;;;8.18;94.01;99129.78;4100296;28;20215;-47
2023/05/25 03:00:46;;;;;;;3.25;2.75;;;;;;;8.20;93.68;99122.25;4099160;28;20698;-44
2023/05/25 03:02:48;;;;;;;5.47;3.38;;;;;;;8.21;93.85;99108.41;4102509;28;20661;-46
2023/05/25 03:04:52;;;;;;;4.75;3.25;;;;;;;8.26;93.52;99111.31;4104290;28;20248;-45
2023/05/25 03:06:55;;;;;;;3.42;2.95;;;;;;;8.30;93.64;99117.97;4103140;28;20258;-45
2023/05/25 03:09:00;;;;;;;5.38;3.63;;;;;;;8.27;93.43;99112.13;4097972;28;20263;-44
2023/05/25 03:11:02;;;;;;;3.60;2.92;;;;;;;8.21;93.64;99118.50;4101579;28;20222;-46
2023/05/25 03:13:03;;;;;;;6.82;2.72;;;;;;;8.21;94.43;99126.69;4106623;28;20238;-44
2023/05/25 03:15:05;;;;;;;4.65;3.10;;;;;;;8.13;94.26;99122.28;4097003;28;20227;-44
2023/05/25 03:17:07;;;;;;;4.22;3.00;;;;;;;8.13;94.70;99115.97;4098917;28;20737;-46
2023/05/25 03:19:10;;;;;;;6.00;3.38;;;;;;;8.15;94.34;99119.34;4084977;29;20578;-45
2023/05/25 03:21:12;;;;;;;5.28;3.33;;;;;;;8.09;94.61;99122.94;4086703;29;20216;-45
2023/05/25 03:23:15;;;;;;;3.88;3.15;;;;;;;8.03;95.35;99134.72;4085136;29;20721;-46
2023/05/25 03:25:17;;;;;;;3.70;2.78;;;;;;;8.00;95.59;99126.97;4083847;29;20617;-45
2023/05/25 03:27:18;;;;;;;4.03;2.55;;;;;;;7.98;96.04;99127.19;4082553;29;20302;-46
2023/05/25 03:29:20;;;;;;;5.10;3.40;;;;;;;7.94;95.77;99130.56;4084994;29;20212;-47
2023/05/25 03:31:22;;;;;;;3.88;3.33;;;;;;;7.93;96.26;99137.06;4084601;29;20208;-45
2023/05/25 03:33:24;;;;;;;5.30;3.92;;;;;;;7.90;96.67;99137.50;4098576;28;20235;-45
2023/05/25 03:35:26;;;;;;;4.63;3.05;;;;;;;7.90;96.44;99137.50;4083283;29;20716;-45
2023/05/25 03:37:28;;;;;;;3.30;2.83;;;;;;;7.87;96.67;99138.78;4097313;28;20258;-45
2023/05/25 03:39:30;;;;;;;6.03;3.22;;;;;;;7.89;96.64;99141.31;4101973;28;20208;-45
2023/05/25 03:41:31;;;;;;;5.80;3.42;;;;;;;7.91;96.41;99144.63;4101848;28;20215;-45
2023/05/25 03:43:33;;;;;;;5.50;3.22;;;;;;;7.82;95.95;99141.31;4083505;28;20238;-46
2023/05/25 03:45:35;;;;;;;3.85;2.63;;;;;;;7.80;95.83;99142.59;4088963;28;20275;-45
2023/05/25 03:47:37;;;;;;;5.22;2.88;;;;;;;7.86;96.24;99147.16;4082147;29;20208;-45
2023/05/25 03:49:39;;;;;;;10.55;3.55;;;;;;;7.81;97.00;99147.00;4078046;29;20211;-46
2023/05/25 03:51:42;;;;;;;5.18;3.13;;;;;;;7.78;97.17;99161.03;4096055;28;20466;-45
2023/05/25 03:53:44;;;;;;;3.95;2.83;;;;;;;7.75;96.82;99156.03;4091331;28;20290;-45
2023/05/25 03:55:45;;;;;;;4.10;3.15;;;;;;;7.75;96.71;99150.59;4095345;28;20551;-46
2023/05/25 03:57:47;;;;;;;2.97;2.55;;;;;;;7.78;95.97;99152.88;4098899;28;21056;-46
2023/05/25 03:59:49;;;;;;;3.55;2.97;;;;;;;7.90;96.48;99151.13;4093599;28;20692;-45
2023/05/25 04:01:51;;;;;;;5.13;3.58;;;;;;;7.93;96.31;99161.59;4093247;28;20558;-45
2023/05/25 04:03:53;;;;;;;3.70;3.05;;;;;;;7.89;96.31;99160.38;4124209;28;20595;-45
2023/05/25 04:05:57;;;;;;;4.15;2.97;;;;;;;7.86;96.18;99158.06;4095955;28;20585;-45
2023/05/25 04:07:58;;;;;;;4.38;2.90;;;;;;;7.88;96.69;99166.88;4098676;28;20202;-45
2023/05/25 04:10:00;;;;;;;3.33;3.03;;;;;;;7.85;96.61;99173.59;4111065;28;20214;-46
2023/05/25 04:12:03;;;;;;;5.47;3.20;;;;;;;7.82;96.77;99175.91;4094921;28;20657;-45
2023/05/25 04:14:05;;;;;;;6.15;3.28;;;;;;;7.87;97.10;99176.06;4096100;28;20684;-45
2023/05/25 04:16:07;;;;;;;5.22;3.60;;;;;;;7.95;97.11;99178.56;4097721;28;20717;-45
2023/05/25 04:18:10;;;;;;;3.80;3.40;;;;;;;7.91;97.28;99182.78;4095673;28;20211;-46
2023/05/25 04:20:12;;;;;;;7.03;3.60;;;;;;;7.88;97.15;99185.94;4079800;29;20208;-46
2023/05/25 04:22:14;;;;;;;4.88;3.03;;;;;;;7.86;97.54;99182.59;4095274;28;20228;-45
2023/05/25 04:24:16;;;;;;;4.85;3.95;;;;;;;7.89;97.12;99191.16;4082192;29;20220;-46
2023/05/25 04:26:18;;;;;;;7.18;4.82;;;;;;;7.90;97.07;99187.38;4092076;28;20199;-45
2023/05/25 04:28:20;;;;;;;6.63;3.50;;;;;;;7.93;97.02;99181.50;4094839;28;20259;-45
2023/05/25 04:30:22;;;;;;;10.60;4.43;;;;;;;8.01;97.31;99191.34;4110815;28;20346;-45
2023/05/25 04:32:23;;;;;;;6.43;3.42;;;;;;;8.03;96.81;99186.50;4093703;28;20590;-46
2023/05/25 04:34:26;;;;;;;13.95;4.30;;;;;;;8.03;97.91;99187.31;4081350;29;20298;-45
2023/05/25 04:36:31;;;;;;;7.70;4.05;;;;;;;8.08;98.66;99194.88;4074538;29;20232;-45
2023/05/25 04:38:34;;;;;;;7.45;4.38;;;;;;;8.14;98.65;99188.50;4094026;28;20214;-45
2023/05/25 04:40:36;;;;;;;5.13;3.00;;;;;;;8.23;98.88;99192.72;4079774;29;20212;-45
2023/05/25 04:42:38;;;;;;;3.55;3.25;;;;;;;8.31;98.46;99197.91;4095583;28;20227;-44
2023/05/25 04:44:40;;;;;;;7.38;3.17;;;;;;;8.30;98.69;99201.69;4088297;28;20215;-45
2023/05/25 04:46:43;;;;;;;4.75;3.28;;;;;;;8.32;98.75;99205.00;4093623;28;20215;-44
2023/05/25 04:48:45;;;;;;;3.65;3.05;;;;;;;8.31;99.43;99206.94;4125927;28;20647;-45
2023/05/25 04:50:47;;;;;;;6.00;3.88;;;;;;;8.31;99.88;99206.94;4112651;28;20261;-45
2023/05/25 04:52:49;;;;;;;5.45;3.08;;;;;;;8.33;100.00;99204.81;4080176;29;20306;-44
2023/05/25 04:54:51;;;;;;;6.13;3.90;;;;;;;8.35;100.00;99210.06;4092223;28;20226;-45
2023/05/25 04:56:52;;;;;;;4.40;3.60;;;;;;;8.36;100.00;99214.44;4090153;28;20212;-45
2023/05/25 04:58:54;;;;;;;5.55;3.67;;;;;;;8.45;100.00;99218.56;4078615;29;20211;-44
2023/05/25 05:00:56;;;;;;;5.45;3.97;;;;;;;8.55;100.00;99213.50;4094095;28;20641;-44
2023/05/25 05:02:59;;;;;;;9.40;3.83;;;;;;;8.64;100.00;99212.16;4078798;29;20631;-44
2023/05/25 05:05:01;;;;;;;4.30;3.65;;;;;;;8.62;100.00;99219.72;4093899;28;20294;-44
2023/05/25 05:07:03;;;;;;;6.65;4.57;;;;;;;8.72;100.00;99214.59;4096591;28;20222;-45
2023/05/25 05:09:05;;;;;;;9.20;4.82;;;;;;;8.76;100.00;99218.56;4093002;28;20315;-45
2023/05/25 05:11:10;;;;;;;4.30;3.70;;;;;;;8.85;100.00;99225.44;4098290;28;20211;-44
2023/05/25 05:13:12;;;;;;;13.10;3.60;;;;;;;8.95;100.00;99212.13;4108882;28;20259;-46
2023/05/25 05:15:15;;;;;;;5.93;3.60;;;;;;;8.98;100.00;99215.25;4095961;28;20231;-45
2023/05/25 05:17:17;;;;;;;6.05;3.38;;;;;;;9.08;100.00;99220.22;4092167;28;20222;-45
2023/05/25 05:19:19;;;;;;;6.13;3.55;;;;;;;9.20;100.00;99229.31;4076693;29;20209;-45
2023/05/25 05:21:21;;;;;;;5.97;3.55;;;;;;;9.23;100.00;99228.88;4094817;28;20227;-45
2023/05/25 05:23:24;;;;;;;3.30;3.00;;;;;;;9.37;100.00;99233.16;4093726;28;20321;-44
2023/05/25 05:25:25;;;;;;;4.20;2.67;;;;;;;9.46;100.00;99223.59;4092463;28;20203;-45
2023/05/25 05:27:27;;;;;;;7.68;3.78;;;;;;;9.58;100.00;99228.13;4121612;28;20232;-45
2023/05/25 05:29:29;;;;;;;9.00;4.10;;;;;;;9.68;100.00;99233.06;4092365;28;20673;-44
2023/05/25 05:31:31;;;;;;;6.70;3.83;;;;;;;9.82;100.00;99240.88;4107677;28;20647;-45
2023/05/25 05:33:34;;;;;;;4.85;3.83;;;;;;;10.02;100.00;99235.19;4106288;28;20705;-45
2023/05/25 05:35:37;;;;;;;10.75;3.70;;;;;;;10.19;100.00;99239.84;4085456;28;20980;-46
2023/05/25 05:37:39;;;;;;;4.63;3.05;;;;;;;10.50;100.00;99244.25;4106323;28;20234;-47
2023/05/25 05:39:41;;;;;;;5.35;2.85;;;;;;;10.72;99.96;99245.41;4105863;28;20226;-45
2023/05/25 05:41:44;;;;;;;4.63;3.83;;;;;;;10.64;98.74;99243.00;4078982;29;20226;-44
2023/05/25 05:43:46;;;;;;;4.72;3.80;;;;;;;10.82;98.87;99244.59;4097168;28;20639;-44
2023/05/25 05:45:51;;;;;;;4.88;3.28;;;;;;;11.07;98.48;99245.28;4108764;28;20230;-44
2023/05/25 05:47:54;;;;;;;6.32;3.80;;;;;;;11.20;97.56;99242.31;4093289;28;20211;-44
2023/05/25 05:49:57;;;;;;;6.30;3.58;;;;;;;11.50;96.42;99248.53;4094641;28;20646;-45
2023/05/25 05:52:00;;;;;;;5.28;3.80;;;;;;;11.71;95.11;99250.69;4095113;28;20266;-45
2023/05/25 05:54:04;;;;;;;4.22;3.63;;;;;;;11.79;94.27;99246.75;4095595;28;20211;-45
2023/05/25 05:56:16;;;;;;;9.10;3.35;;;;;;;11.88;94.72;99250.78;4092036;28;20235;-45
2023/05/25 05:58:20;;;;;;;6.85;3.15;;;;;;;12.08;93.18;99246.59;4082229;29;20266;-46
2023/05/25 06:00:23;;;;;;;5.55;3.40;;;;;;;12.13;93.14;99243.97;4094305;28;20246;-45
2023/05/25 06:02:26;;;;;;;5.97;3.17;;;;;;;12.37;92.16;99242.81;4095338;28;20231;-45
2023/05/25 06:04:28;;;;;;;5.30;3.90;;;;;;;12.30;91.96;99250.34;4112986;28;20228;-46
2023/05/25 06:06:33;;;;;;;5.35;2.80;;;;;;;12.46;90.89;99249.59;4089669;28;20204;-45
2023/05/25 06:08:35;;;;;;;3.65;3.35;;;;;;;12.64;91.47;99248.56;4107541;28;21250;-45
2023/05/25 06:10:38;;;;;;;7.00;3.30;;;;;;;12.50;89.77;99245.28;4091155;28;20302;-44
2023/05/25 06:12:40;;;;;;;5.85;3.30;;;;;;;12.74;88.83;99246.84;4079448;29;20271;-44
2023/05/25 06:14:42;;;;;;;4.65;2.80;;;;;;;12.47;88.64;99245.78;4088184;28;20212;-45
2023/05/25 06:16:44;;;;;;;5.72;3.33;;;;;;;12.69;87.91;99238.50;4092718;28;20322;-44
2023/05/25 06:18:47;;;;;;;3.70;2.60;;;;;;;12.90;88.52;99246.03;4096057;28;20639;-44
2023/05/25 06:20:49;;;;;;;8.88;2.70;;;;;;;13.14;87.63;99250.38;4076207;29;20216;-45
2023/05/25 06:22:51;;;;;;;4.43;2.47;;;;;;;13.22;86.10;99255.44;4075085;28;20232;-44
2023/05/25 06:24:53;;;;;;;5.03;3.15;;;;;;;13.10;86.01;99257.41;4120615;28;20225;-44
2023/05/25 06:26:55;;;;;;;3.53;2.70;;;;;;;13.34;86.83;99247.97;4074633;29;20212;-44
2023/05/25 06:29:00;;;;;;;10.70;3.00;;;;;;;13.33;84.98;99251.78;4102738;28;20206;-44
2023/05/25 06:31:03;;;;;;;4.70;2.70;;;;;;;13.28;85.35;99242.59;4089281;28;20224;-45
2023/05/25 06:33:05;;;;;;;10.48;3.80;;;;;;;13.37;84.26;99252.94;4086370;29;20235;-44
2023/05/25 06:35:11;;;;;;;3.92;2.78;;;;;;;13.68;84.47;99257.84;4083758;29;20243;-45
2023/05/25 06:37:25;;;;;;;5.82;2.75;;;;;;;13.57;84.58;99247.75;4121061;28;20198;-45
2023/05/25 06:39:42;;;;;;;5.70;2.75;;;;;;;13.78;84.77;99244.22;4093544;28;20211;-45
2023/05/25 06:41:56;;;;;;;10.55;3.22;;;;;;;13.90;84.29;99258.72;4092432;28;20385;-45
2023/05/25 06:43:59;;;;;;;5.80;2.72;;;;;;;13.64;81.78;99253.94;4075902;29;20629;-44
2023/05/25 06:46:01;;;;;;;5.35;2.60;;;;;;;13.83;82.91;99252.56;4081281;28;20255;-45
2023/05/25 06:48:11;;;;;;;5.43;2.45;;;;;;;14.04;81.46;99254.53;4094178;28;20395;-44
2023/05/25 06:50:19;;;;;;;4.60;2.90;;;;;;;14.20;80.75;99248.19;4094185;28;20216;-45
2023/05/25 06:52:22;;;;;;;3.10;2.25;;;;;;;14.40;80.04;99253.09;4113341;28;20233;-44
2023/05/25 06:54:24;;;;;;;5.93;3.05;;;;;;;14.45;80.37;99254.03;4076953;29;20276;-44
2023/05/25 06:56:26;;;;;;;4.70;2.45;;;;;;;14.49;77.49;99246.88;4096270;28;20267;-45
2023/05/25 06:58:28;;;;;;;6.25;3.20;;;;;;;14.60;79.94;99258.84;4128265;28;20221;-45
2023/05/25 07:00:31;;;;;;;8.77;2.28;;;;;;;14.40;79.39;99253.94;4095514;28;20211;-44
2023/05/25 07:02:41;;;;;;;4.70;2.40;;;;;;;14.32;80.39;99250.81;4093169;28;20318;-44
2023/05/25 07:04:44;;;;;;;9.88;2.75;;;;;;;14.60;80.19;99254.19;4094796;28;20203;-44
2023/05/25 07:06:47;;;;;;;6.18;2.47;;;;;;;14.79;77.75;99247.25;4095655;28;20215;-45
2023/05/25 07:08:49;;;;;;;6.88;2.17;;;;;;;14.93;78.11;99245.75;4080345;29;20608;-45
2023/05/25 07:10:51;;;;;;;3.22;2.42;;;;;;;14.55;77.21;99245.84;4091803;28;20556;-44
2023/05/25 07:12:53;;;;;;;5.45;2.03;;;;;;;14.95;77.22;99232.53;4092345;28;20326;-44
2023/05/25 07:14:56;;;;;;;4.63;2.83;;;;;;;15.16;75.79;99248.16;4095581;28;20212;-45
2023/05/25 07:16:58;;;;;;;5.18;2.78;;;;;;;15.46;76.66;99240.19;4094835;28;20234;-45
2023/05/25 07:19:00;;;;;;;4.32;2.60;;;;;;;15.64;75.61;99250.00;4121721;28;20604;-45
2023/05/25 07:21:02;;;;;;;5.68;2.65;;;;;;;15.85;75.35;99243.50;4109869;28;20217;-45
2023/05/25 07:23:04;;;;;;;4.95;2.83;;;;;;;15.80;73.83;99244.31;4091655;28;20239;-45
2023/05/25 07:25:07;;;;;;;4.60;2.28;;;;;;;16.00;72.85;99249.97;4097965;28;20776;-45
2023/05/25 07:27:09;;;;;;;3.22;2.40;;;;;;;15.96;73.44;99253.53;4095429;28;20211;-45
2023/05/25 07:29:11;;;;;;;4.63;1.60;;;;;;;15.77;72.20;99247.59;4105760;28;20203;-47
2023/05/25 07:31:13;;;;;;;6.85;2.47;;;;;;;16.25;72.43;99252.88;4078391;28;20212;-45
2023/05/25 07:33:15;;;;;;;7.03;2.40;;;;;;;16.41;70.83;99251.88;4120148;28;20249;-46
2023/05/25 07:35:17;;;;;;;13.38;2.78;;;;;;;16.09;70.40;99255.81;4091975;28;20212;-45
2023/05/25 07:37:19;;;;;;;4.88;2.20;;;;;;;16.31;70.45;99240.75;4090329;28;20240;-44
2023/05/25 07:39:20;;;;;;;5.75;2.13;;;;;;;16.36;69.83;99248.22;4088954;28;20297;-44
2023/05/25 07:41:22;;;;;;;4.35;2.05;;;;;;;16.31;69.17;99246.28;4091998;28;20216;-45
2023/05/25 07:43:24;;;;;;;5.07;2.33;;;;;;;16.21;69.62;99240.69;4090285;28;20227;-46
2023/05/25 07:45:26;;;;;;;6.40;2.92;;;;;;;16.63;68.79;99248.91;4075192;29;20224;-45
2023/05/25 07:47:28;;;;;;;20.23;3.47;;;;;;;16.66;68.61;99249.22;4090835;28;20614;-45
2023/05/25 07:49:29;;;;;;;3.45;2.33;;;;;;;16.83;68.05;99244.25;4087780;28;20327;-44
2023/05/25 07:51:31;;;;;;;7.60;2.33;;;;;;;16.85;67.59;99252.28;4088360;28;20219;-45
2023/05/25 07:53:33;;;;;;;5.93;2.90;;;;;;;16.85;67.70;99242.06;4077497;29;20292;-45
2023/05/25 07:55:35;;;;;;;7.30;3.00;;;;;;;16.86;67.33;99254.78;4117678;28;20595;-45
2023/05/25 07:57:37;;;;;;;6.93;2.72;;;;;;;16.87;67.88;99256.44;4103330;28;20240;-45
2023/05/25 07:59:40;;;;;;;4.93;2.65;;;;;;;16.66;66.36;99260.25;4106013;28;20247;-45
2023/05/25 08:01:42;;;;;;;6.63;2.47;;;;;;;16.89;67.09;99258.94;4097360;28;20590;-46
2023/05/25 08:03:45;;;;;;;4.45;2.38;;;;;;;16.90;66.79;99261.41;4083494;29;20208;-44
2023/05/25 08:05:51;;;;;;;6.47;3.10;;;;;;;16.97;66.34;99264.75;4091891;28;20219;-45
2023/05/25 08:07:53;;;;;;;5.78;2.35;;;;;;;16.73;67.76;99260.84;4098161;28;20212;-44
2023/05/25 08:09:59;;;;;;;3.58;1.75;;;;;;;16.92;66.98;99264.75;4081345;29;20212;-44
2023/05/25 08:12:01;;;;;;;5.65;3.17;;;;;;;16.54;67.69;99267.94;4095807;28;20711;-44
2023/05/25 08:14:23;;;;;;;6.47;2.88;;;;;;;16.84;68.41;99273.56;4098926;28;20666;-44
2023/05/25 08:16:26;;;;;;;6.65;2.70;;;;;;;17.04;68.18;99265.31;4095275;28;20274;-43
2023/05/25 08:18:30;;;;;;;6.70;3.20;;;;;;;16.83;66.26;99265.56;4095706;28;20674;-45
2023/05/25 08:20:32;;;;;;;6.22;2.30;;;;;;;17.07;66.51;99270.31;4080069;28;20774;-44
2023/05/25 08:22:35;;;;;;;9.20;2.53;;;;;;;17.15;65.84;99258.72;4100850;28;20227;-45
2023/05/25 08:24:38;;;;;;;3.50;2.50;;;;;;;17.36;65.55;99263.16;4113852;28;20219;-44
2023/05/25 08:26:40;;;;;;;5.25;2.28;;;;;;;17.54;64.79;99273.72;4098061;28;20891;-43
2023/05/25 08:28:55;;;;;;;7.47;2.15;;;;;;;17.69;65.54;99260.72;4082387;28;20725;-46
2023/05/25 08:30:57;;;;;;;7.45;2.78;;;;;;;17.93;64.62;99260.97;4093277;28;20223;-46
2023/05/25 08:32:59;;;;;;;9.32;3.42;;;;;;;17.83;62.87;99260.97;4096856;28;20722;-46
2023/05/25 08:35:02;;;;;;;4.20;2.28;;;;;;;18.14;62.86;99257.06;4094050;28;20272;-45
2023/05/25 08:37:04;;;;;;;5.75;2.05;;;;;;;18.35;62.56;99258.69;4080008;29;20251;-44
2023/05/25 08:39:07;;;;;;;5.53;2.85;;;;;;;18.93;61.99;99255.09;4094749;28;20262;-44
2023/05/25 08:41:11;;;;;;;3.03;2.63;;;;;;;18.09;59.65;99259.81;4097293;28;20760;-46
2023/05/25 08:43:13;;;;;;;4.80;2.65;;;;;;;18.41;61.10;99268.66;4108490;28;20436;-44
2023/05/25 08:45:16;;;;;;;5.18;2.38;;;;;;;18.84;60.37;99274.28;4119665;28;20657;-44
2023/05/25 08:47:40;;;;;;;4.35;2.08;;;;;;;18.86;57.45;99274.81;4095676;28;20203;-44
2023/05/25 08:49:43;;;;;;;4.68;2.13;;;;;;;18.35;55.80;99275.31;4095180;28;20211;-45
2023/05/25 08:51:51;;;;;;;4.05;2.40;;;;;;;19.09;60.04;99270.53;4094788;28;20673;-44
2023/05/25 08:53:55;;;;;;;3.60;2.05;;;;;;;19.34;55.71;99273.19;4094123;28;20210;-44
2023/05/25 08:55:57;;;;;;;8.88;2.60;;;;;;;18.87;54.15;99273.75;4077288;29;20208;-46
2023/05/25 08:58:09;;;;;;;6.57;1.80;;;;;;;18.52;52.85;99275.81;4092107;28;20257;-44
2023/05/25 09:00:13;;;;;;;2.90;1.58;;;;;;;18.89;54.51;99276.19;4089031;28;20211;-47
2023/05/25 09:02:45;;;;;;;5.55;1.95;;;;;;;19.18;51.07;99285.50;4091788;28;20656;-45
2023/05/25 09:04:47;;;;;;;5.40;2.17;;;;;;;19.04;50.03;99273.38;4089423;28;20212;-44
2023/05/25 09:06:49;;;;;;;4.53;2.00;;;;;;;18.32;50.29;99281.44;4093163;28;20211;-44
2023/05/25 09:09:11;;;;;;;3.40;1.77;;;;;;;18.42;50.62;99276.69;4080514;28;20219;-44
2023/05/25 09:11:13;;;;;;;3.67;2.35;;;;;;;18.65;51.94;99280.78;4074317;29;20801;-44
2023/05/25 09:13:20;;;;;;;4.47;2.58;;;;;;;18.47;49.21;99281.38;4078011;29;20243;-44
2023/05/25 09:15:23;;;;;;;5.40;1.95;;;;;;;18.77;48.74;99278.50;4080419;28;20650;-45
2023/05/25 09:17:27;;;;;;;4.30;1.88;;;;;;;18.90;49.33;99283.41;4107033;28;20862;-45
2023/05/25 09:19:29;;;;;;;5.93;1.98;;;;;;;19.18;50.65;99268.84;4079230;29;20220;-45
2023/05/25 09:21:32;;;;;;;7.63;2.40;;;;;;;18.90;48.68;99277.84;4091044;28;20633;-45
2023/05/25 09:23:41;;;;;;;7.03;3.17;;;;;;;19.47;50.69;99272.53;4092542;28;20748;-44
2023/05/25 09:25:49;;;;;;;3.20;1.58;;;;;;;19.02;48.47;99272.81;4082789;28;20245;-44
2023/05/25 09:27:51;;;;;;;8.57;1.92;;;;;;;19.34;48.29;99270.41;4093117;28;20225;-44
2023/05/25 09:29:58;;;;;;;3.97;1.58;;;;;;;19.63;47.88;99276.84;4112988;28;20213;-44
2023/05/25 09:32:05;;;;;;;5.30;2.35;;;;;;;19.57;48.37;99278.03;4098160;28;20227;-46
2023/05/25 09:34:12;;;;;;;9.10;2.20;;;;;;;19.39;48.33;99275.94;4093367;28;20309;-44
2023/05/25 09:36:16;;;;;;;5.20;2.22;;;;;;;19.09;47.37;99281.63;4089476;28;20222;-44
2023/05/25 09:38:22;;;;;;;3.53;2.08;;;;;;;19.30;49.35;99280.44;4078132;29;20294;-44
2023/05/25 09:40:25;;;;;;;3.40;1.65;;;;;;;19.38;47.57;99277.88;4106758;28;20214;-44
2023/05/25 09:42:28;;;;;;;5.22;1.83;;;;;;;19.42;48.90;99276.19;4124234;28;20248;-44
2023/05/25 09:44:30;;;;;;;3.97;2.00;;;;;;;20.08;49.54;99284.81;4092364;28;20246;-44